Surrency, GA (31563)

4:45 PM EDT on April 26, 2015 (GMT -0400)
203 N | | Change Station
CLOSE
Current Station
Personal Weather Station
Location: Mershon, GA
Elevation: 197 ft
Nearby Weather Stations
Active Advisory: Flood Warning Active Notice: Local Storm Report

Elev 197 ft 31.58 °N, 82.32 °W | Updated 5 seconds ago

Clear
Clear
87.9 °F
Feels Like 88 °F
N
5.8
Wind Variable Wind from West
Gusts 5.8 mph

Today
High -- | Low -- °F
--% Chance of Precip.
Yesterday
High -- | Low -- °F
Precip. -- in
6:48 AM 8:05 PM
First Quarter, 58% visible
Pressure 29.65 in
Visibility 10.0 miles
Clouds Clear
Heat Index 88 °F
Dew Point 62 °F
Humidity 42%
Rainfall 0.00 in
Snow Depth Not available.
UV 7 out of 12
Pollen 9.50 out of 12
Air Quality Not available.
Flu Activity Sporadic
METAR KJES 262035Z AUTO 30013KT 10SM CLR 32/16 A2965 RMK AO2

More Conditions Fewer Conditions

Pressure 29.65 in
Visibility 10.0 miles
Clouds Clear
Heat Index 88 °F
Dew Point 62 °F
Humidity 42%
Rainfall 0.00 in
Snow Depth Not available.
UV 7 out of 12
Pollen 9.50 out of 12
Air Quality Not available.
Flu Activity Sporadic
METAR KJES 262035Z AUTO 30013KT 10SM CLR 32/16 A2965 RMK AO2

More Conditions Fewer Conditions

The full scope of the disaster following a powerful 7.8-magnitude earthquake in Nepal may not come into view for days, but global charities are already sending emergency aid. Click to see how you can help.

10-Day Weather Forecast

Almanac

Astronomy

Apr. 26, 2015 Rise Set
Actual Time
Civil Twilight
Nautical Twilight
Astronomical Twilight
Moon
Length of Visible Light
Length of Day
Tomorrow will be .
, % of the Moon is Illuminated

Today's Extremes

State Highs State Lows

Community

WunderPhotos

Upload Photos

1,817,114 photos uploaded!

WunderBlogs® & News

Nearby

Air Quality

  Air Quality AQ Index Pollutant
Not available.

Snow Depth

Station Depth Elevation

Earthquake Activity

City Distance Mag. Time & Date
Minimum magnitude displayed is 2.5.

Coastal Water Temperatures

Place Temperature

Stations

Nearby Weather Stations

Station Location Temp. Windchill Dew Point Humidity Wind Precip. Elev Updated Type
                   
Flood Warning
Statement as of 9:42 AM EDT on April 26, 2015

The Flood Warning continues for
the Altamaha river at Baxley.
* Until further notice... or until the warning is cancelled.
* At 8:45 am Sunday the stage was 75.3 feet.
* Minor flooding is occurring and minor flooding is forecast.
* Flood stage is 74.5 feet.
* Forecast... the river will continue rising to near 76.3 feet by
early Thursday morning then begin falling.
* Impact... at 74.5 feet... minor flooding of Timber and agricultural
land can be expected.





               Fld observed 7am EST / 8am EDT forecast
location stg stg day time Mon Tue Wed Thu Fri

Altamaha
Baxley 74 75.3 sun 09 am 75.7 76.0 76.1 76.3 76.3




Lat... Lon 3194 8243 3188 8222 3176 8199 3183 8195 3193 8213 3200 8243